createdAt,value
2018-05-27T00:01:51.029Z,60.41
2018-05-27T00:04:18.510Z,61.36
2018-05-27T00:06:46.007Z,61.29
2018-05-27T00:09:13.541Z,61.03
2018-05-27T00:11:41.058Z,61.53
2018-05-27T00:14:08.588Z,62.37
2018-05-27T00:16:36.092Z,61.89
2018-05-27T00:19:03.616Z,61.81
2018-05-27T00:21:31.108Z,62.23
2018-05-27T00:23:58.619Z,62.25
2018-05-27T00:26:26.169Z,62.30
2018-05-27T00:28:53.693Z,62.40
2018-05-27T00:31:21.249Z,62.36
2018-05-27T00:33:48.762Z,62.46
2018-05-27T00:36:16.268Z,63.60
2018-05-27T00:38:43.775Z,64.21
2018-05-27T00:41:11.291Z,64.33
2018-05-27T00:43:39.855Z,63.97
2018-05-27T00:46:07.360Z,64.00
2018-05-27T00:48:34.994Z,64.49
2018-05-27T00:51:02.514Z,64.75
2018-05-27T00:53:41.661Z,65.58
2018-05-27T00:56:09.223Z,65.30
2018-05-27T00:58:36.784Z,66.75
2018-05-27T01:01:04.334Z,66.16
2018-05-27T01:03:31.816Z,66.98
2018-05-27T01:05:59.327Z,67.63
2018-05-27T01:08:26.849Z,67.40
2018-05-27T01:10:55.402Z,66.60
2018-05-27T01:13:22.916Z,65.82
2018-05-27T01:15:50.473Z,66.27
2018-05-27T01:18:18.486Z,66.45
2018-05-27T01:20:46.004Z,66.28
2018-05-27T01:23:13.512Z,66.68
2018-05-27T01:25:41.024Z,67.35
2018-05-27T01:28:08.516Z,67.96
2018-05-27T01:30:36.032Z,68.14
2018-05-27T01:33:03.525Z,67.37
2018-05-27T01:35:31.129Z,67.38
2018-05-27T01:37:58.638Z,67.83
2018-05-27T01:40:26.145Z,67.13
2018-05-27T01:42:53.668Z,67.34
2018-05-27T01:45:21.176Z,67.98
2018-05-27T01:47:48.681Z,68.38
2018-05-27T01:50:16.169Z,68.65
2018-05-27T01:52:43.752Z,69.24
2018-05-27T01:55:11.228Z,68.58
2018-05-27T01:57:38.736Z,68.36
2018-05-27T02:00:06.266Z,69.94
2018-05-27T02:02:33.940Z,68.33
2018-05-27T02:05:01.425Z,68.08
2018-05-27T02:07:29.614Z,68.23
2018-05-27T02:09:57.117Z,67.99
2018-05-27T02:12:24.627Z,68.04
2018-05-27T02:14:52.141Z,67.78
2018-05-27T02:17:19.602Z,67.56
2018-05-27T02:19:47.076Z,67.97
2018-05-27T02:22:14.733Z,68.82
2018-05-27T02:24:42.205Z,68.82
2018-05-27T02:27:09.726Z,68.90
2018-05-27T02:29:38.356Z,69.11
2018-05-27T02:32:06.750Z,68.93
2018-05-27T02:34:34.252Z,69.34
2018-05-27T02:37:01.735Z,68.74
2018-05-27T02:39:31.153Z,69.23
2018-05-27T02:41:58.749Z,68.57
2018-05-27T02:44:26.260Z,69.39
2018-05-27T02:46:53.749Z,70.05
2018-05-27T02:49:21.280Z,69.62
2018-05-27T02:51:48.818Z,69.54
2018-05-27T02:54:16.321Z,69.19
2018-05-27T02:56:59.492Z,70.65
2018-05-27T02:59:27.089Z,70.25
2018-05-27T03:01:54.592Z,71.25
2018-05-27T03:04:22.073Z,70.85
2018-05-27T03:06:49.588Z,71.25
2018-05-27T03:09:17.216Z,70.67
2018-05-27T03:11:44.735Z,70.35
2018-05-27T03:14:12.239Z,70.71
2018-05-27T03:16:39.887Z,71.19
2018-05-27T03:19:07.393Z,70.20
2018-05-27T03:21:34.908Z,71.32
2018-05-27T03:24:02.415Z,72.52
2018-05-27T03:26:29.945Z,71.57
2018-05-27T03:28:57.451Z,70.92
2018-05-27T03:31:24.924Z,71.68
2018-05-27T03:33:52.429Z,70.97
2018-05-27T03:36:20.616Z,70.83
2018-05-27T03:38:48.117Z,71.18
2018-05-27T03:41:15.628Z,71.16
2018-05-27T03:43:43.262Z,71.10
2018-05-27T03:46:10.771Z,70.71
2018-05-27T03:48:38.668Z,71.28
2018-05-27T03:51:06.144Z,70.68
2018-05-27T03:53:33.759Z,72.06
2018-05-27T03:56:01.328Z,71.89
2018-05-27T03:58:29.786Z,73.18
2018-05-27T04:00:57.290Z,74.42
2018-05-27T04:03:24.767Z,74.87
2018-05-27T04:06:04.087Z,75.64
2018-05-27T04:08:39.212Z,76.32
2018-05-27T04:11:06.700Z,75.08
2018-05-27T04:13:34.193Z,75.27
2018-05-27T04:16:01.685Z,76.21
2018-05-27T04:18:29.293Z,76.41
2018-05-27T04:20:56.853Z,77.16
2018-05-27T04:23:24.382Z,77.68
2018-05-27T04:25:51.922Z,76.55
2018-05-27T04:28:19.545Z,77.31
2018-05-27T04:30:48.031Z,78.89
2018-05-27T04:33:15.531Z,78.50
2018-05-27T04:35:43.036Z,78.69
2018-05-27T04:38:10.600Z,77.80
2018-05-27T04:40:38.097Z,77.89
2018-05-27T04:43:05.593Z,79.25
2018-05-27T04:45:33.131Z,78.64
2018-05-27T04:48:00.661Z,77.51
2018-05-27T04:50:28.197Z,77.02
2018-05-27T04:52:55.700Z,77.99
2018-05-27T04:55:23.198Z,77.18
2018-05-27T04:57:50.674Z,77.21
2018-05-27T05:00:18.217Z,77.62
2018-05-27T05:02:45.710Z,76.81
2018-05-27T05:05:13.200Z,77.24
2018-05-27T05:07:40.706Z,78.76
2018-05-27T05:10:08.199Z,78.87
2018-05-27T05:12:35.725Z,77.51
2018-05-27T05:15:03.280Z,77.21
2018-05-27T05:20:04.700Z,76.99
2018-05-27T05:22:35.958Z,79.84
2018-05-27T05:25:03.476Z,79.43
2018-05-27T05:27:31.970Z,77.91
2018-05-27T05:30:01.067Z,79.16
2018-05-27T05:32:30.316Z,80.19
2018-05-27T05:34:57.805Z,79.54
2018-05-27T05:37:25.316Z,80.83
2018-05-27T05:39:52.877Z,79.73
2018-05-27T05:42:21.007Z,78.54
2018-05-27T05:44:49.132Z,80.58
2018-05-27T05:47:16.621Z,80.61
2018-05-27T05:49:44.148Z,80.04
2018-05-27T05:52:11.656Z,80.26
2018-05-27T05:54:39.319Z,81.67
2018-05-27T05:57:06.793Z,81.03
2018-05-27T05:59:34.268Z,81.19
2018-05-27T06:02:01.776Z,81.79
2018-05-27T06:04:29.401Z,80.55
2018-05-27T06:06:56.895Z,81.26
2018-05-27T06:09:24.375Z,80.54
2018-05-27T06:11:51.859Z,79.83
2018-05-27T06:14:19.396Z,80.67
2018-05-27T06:16:46.890Z,80.35
2018-05-27T06:19:14.424Z,80.31
2018-05-27T06:21:45.196Z,79.32
2018-05-27T06:24:12.684Z,79.35
2018-05-27T06:26:40.173Z,79.80
2018-05-27T06:29:07.653Z,79.19
2018-05-27T06:31:35.177Z,80.04
2018-05-27T06:34:02.660Z,79.88
2018-05-27T06:36:31.094Z,79.14
2018-05-27T06:38:59.593Z,79.05
2018-05-27T06:41:27.240Z,78.88
2018-05-27T06:43:55.833Z,78.33
2018-05-27T06:46:23.318Z,78.86
2018-05-27T06:48:50.838Z,78.51
2018-05-27T06:51:18.355Z,78.86
2018-05-27T06:53:45.838Z,79.33
2018-05-27T06:56:13.311Z,78.40
2018-05-27T06:58:40.824Z,77.13
2018-05-27T07:01:08.310Z,77.89
2018-05-27T07:03:35.825Z,77.67
2018-05-27T07:06:03.437Z,77.58
2018-05-27T07:08:31.717Z,77.43
2018-05-27T07:10:59.349Z,77.23
2018-05-27T07:13:26.860Z,77.54
2018-05-27T07:15:54.391Z,77.09
2018-05-27T07:18:21.886Z,76.20
2018-05-27T07:20:50.177Z,76.08
2018-05-27T07:23:17.656Z,75.56
2018-05-27T07:25:46.917Z,75.26
2018-05-27T07:28:14.558Z,74.50
2018-05-27T07:30:42.078Z,73.61
2018-05-27T07:33:09.700Z,74.26
2018-05-27T07:35:37.203Z,74.52
2018-05-27T07:38:04.688Z,74.41
2018-05-27T07:40:32.198Z,74.10
2018-05-27T07:42:59.738Z,73.98
2018-05-27T07:45:27.240Z,73.60
2018-05-27T07:47:54.720Z,74.11
2018-05-27T07:50:22.342Z,74.40
2018-05-27T07:52:49.808Z,74.06
2018-05-27T07:55:17.285Z,73.58
2018-05-27T07:57:44.810Z,73.89
2018-05-27T08:00:12.299Z,73.33
2018-05-27T08:02:39.881Z,72.84
2018-05-27T08:05:07.393Z,72.33
2018-05-27T08:07:34.860Z,72.74
2018-05-27T08:10:02.399Z,72.59
2018-05-27T08:12:29.926Z,72.05
2018-05-27T08:14:59.057Z,72.04
2018-05-27T08:17:26.578Z,72.01
2018-05-27T08:24:57.228Z,72.87
2018-05-27T08:27:26.630Z,72.08
2018-05-27T08:29:57.127Z,71.44
2018-05-27T08:32:28.284Z,71.46
2018-05-27T08:34:55.806Z,71.79
2018-05-27T08:37:23.304Z,72.02
2018-05-27T08:39:50.823Z,71.00
2018-05-27T08:42:18.314Z,71.53
2018-05-27T08:44:45.817Z,71.65
2018-05-27T08:47:13.340Z,71.38
2018-05-27T08:49:40.819Z,71.29
2018-05-27T08:52:08.668Z,71.28
2018-05-27T08:54:50.527Z,70.54
2018-05-27T08:57:18.063Z,70.56
2018-05-27T08:59:45.701Z,69.90
2018-05-27T09:02:13.212Z,68.78
2018-05-27T09:04:40.728Z,69.78
2018-05-27T09:07:08.208Z,69.59
2018-05-27T09:09:36.391Z,69.34
2018-05-27T09:12:04.013Z,68.95
2018-05-27T09:14:31.583Z,67.74
2018-05-27T09:16:59.113Z,69.10
2018-05-27T09:19:26.582Z,68.77
2018-05-27T09:21:54.081Z,68.27
2018-05-27T09:24:21.650Z,67.74
2018-05-27T09:26:49.180Z,67.32
2018-05-27T09:29:16.692Z,67.35
2018-05-27T09:31:44.180Z,67.43
2018-05-27T09:34:11.788Z,65.70
2018-05-27T09:36:39.280Z,66.20
2018-05-27T09:39:06.820Z,64.47
2018-05-27T09:41:34.356Z,63.75
2018-05-27T09:44:01.830Z,64.68
2018-05-27T09:46:30.299Z,65.25
2018-05-27T09:48:57.938Z,65.26
2018-05-27T09:51:25.467Z,64.90
2018-05-27T09:53:54.598Z,63.84
2018-05-27T09:56:22.083Z,63.13
2018-05-27T09:58:49.602Z,63.88
2018-05-27T10:01:17.068Z,64.43
2018-05-27T10:03:44.585Z,63.88
2018-05-27T10:06:12.096Z,64.43
2018-05-27T10:08:39.587Z,64.38
2018-05-27T10:11:07.100Z,64.12
2018-05-27T10:13:34.790Z,63.25
2018-05-27T10:16:02.345Z,63.52
2018-05-27T10:18:29.880Z,61.97
2018-05-27T10:20:57.365Z,62.38
2018-05-27T10:23:25.027Z,61.32
2018-05-27T10:25:52.551Z,61.71
2018-05-27T10:28:20.033Z,61.34
2018-05-27T10:30:47.558Z,61.14
2018-05-27T10:33:15.147Z,59.71
2018-05-27T10:35:42.638Z,61.34
2018-05-27T10:38:10.133Z,60.96
2018-05-27T10:40:38.471Z,59.24
2018-05-27T10:43:07.078Z,57.07
2018-05-27T10:45:35.474Z,58.08
2018-05-27T10:48:03.509Z,56.91
2018-05-27T10:50:31.022Z,58.38
2018-05-27T10:53:14.355Z,56.77
2018-05-27T10:55:41.973Z,55.97
2018-05-27T10:58:09.473Z,55.53
2018-05-27T11:00:36.989Z,55.09
2018-05-27T11:03:04.589Z,54.93
2018-05-27T11:05:32.934Z,55.66
2018-05-27T11:08:00.450Z,54.03
2018-05-27T11:10:27.948Z,53.42
2018-05-27T11:12:55.695Z,51.40
2018-05-27T11:15:23.193Z,51.79
2018-05-27T11:17:50.657Z,53.77
2018-05-27T11:20:18.151Z,53.37
2018-05-27T11:22:45.630Z,53.66
2018-05-27T11:25:13.164Z,51.80
2018-05-27T11:27:40.641Z,50.64
2018-05-27T11:30:08.154Z,47.53
2018-05-27T11:32:35.628Z,49.21
2018-05-27T11:35:03.174Z,47.25
2018-05-27T11:37:30.687Z,48.07
2018-05-27T11:39:58.178Z,46.63
2018-05-27T11:42:25.762Z,48.96
2018-05-27T11:44:53.284Z,47.49
2018-05-27T11:47:20.780Z,46.25
2018-05-27T11:57:11.837Z,46.90
2018-05-27T11:59:39.404Z,46.05
2018-05-27T12:02:07.021Z,45.82
2018-05-27T12:04:34.464Z,45.43
2018-05-27T12:07:01.964Z,46.98
2018-05-27T12:09:29.578Z,44.92
2018-05-27T12:11:57.025Z,44.82
2018-05-27T12:14:24.519Z,44.99
2018-05-27T12:16:52.393Z,44.76
2018-05-27T12:19:19.868Z,44.48
2018-05-27T12:21:47.372Z,43.38
2018-05-27T12:24:14.947Z,41.61
2018-05-27T12:26:42.497Z,42.19
2018-05-27T12:29:09.996Z,43.40
2018-05-27T12:31:37.476Z,43.54
2018-05-27T12:34:04.980Z,43.57
2018-05-27T12:36:32.567Z,40.89
2018-05-27T12:39:00.043Z,42.37
2018-05-27T12:41:27.551Z,42.54
2018-05-27T12:43:55.079Z,41.13
2018-05-27T12:46:22.665Z,41.50
2018-05-27T12:48:50.199Z,41.28
2018-05-27T12:51:20.396Z,42.10
2018-05-27T12:53:47.907Z,42.57
2018-05-27T12:56:15.411Z,42.19
2018-05-27T12:58:42.987Z,41.21
2018-05-27T13:01:10.469Z,42.18
2018-05-27T13:03:37.940Z,41.93
2018-05-27T13:06:05.475Z,41.41
2018-05-27T13:08:32.951Z,42.71
2018-05-27T13:11:00.560Z,41.37
2018-05-27T13:13:28.055Z,41.69
2018-05-27T13:15:55.552Z,41.06
2018-05-27T13:18:23.150Z,40.44
2018-05-27T13:20:50.629Z,42.18
2018-05-27T13:23:18.160Z,41.36
2018-05-27T13:25:45.630Z,41.34
2018-05-27T13:28:14.771Z,41.01
2018-05-27T13:30:42.238Z,40.82
2018-05-27T13:33:10.483Z,40.93
2018-05-27T13:35:40.091Z,39.53
2018-05-27T13:38:08.333Z,41.59
2018-05-27T13:40:36.207Z,40.58
2018-05-27T13:43:03.704Z,39.67
2018-05-27T13:45:33.146Z,39.97
2018-05-27T13:48:00.647Z,40.96
2018-05-27T13:50:35.464Z,39.65
2018-05-27T13:53:02.984Z,39.54
2018-05-27T13:55:30.692Z,39.62
2018-05-27T13:57:58.141Z,40.13
2018-05-27T14:02:59.416Z,38.38
2018-05-27T14:05:26.913Z,39.14
2018-05-27T14:07:54.406Z,38.98
2018-05-27T14:10:22.055Z,39.07
2018-05-27T14:12:49.726Z,39.60
2018-05-27T14:15:17.301Z,38.79
2018-05-27T14:17:44.859Z,37.54
2018-05-27T14:40:38.548Z,43.33
2018-05-27T14:44:41.483Z,47.49
2018-05-27T14:47:48.874Z,48.79
2018-05-27T14:53:30.189Z,50.28
2018-05-27T14:55:57.772Z,49.98
2018-05-27T14:58:28.766Z,50.11
2018-05-27T15:01:20.034Z,47.11
2018-05-27T15:06:48.677Z,45.87
2018-05-27T15:12:00.053Z,49.41
2018-05-27T15:14:27.589Z,49.17
2018-05-27T15:16:55.446Z,48.78
2018-05-27T15:19:23.789Z,44.05
2018-05-27T15:21:51.316Z,46.16
2018-05-27T15:24:19.218Z,48.16
2018-05-27T15:26:47.525Z,49.00
2018-05-27T15:29:14.986Z,49.25
2018-05-27T15:31:42.644Z,47.21
2018-05-27T15:34:10.150Z,48.16
2018-05-27T15:36:37.663Z,49.28
2018-05-27T15:39:05.955Z,50.27
2018-05-27T15:41:33.502Z,49.19
2018-05-27T15:44:10.635Z,49.94
2018-05-27T15:46:38.284Z,50.27
2018-05-27T15:49:05.768Z,50.47
2018-05-27T15:51:39.560Z,50.29
2018-05-27T15:54:10.662Z,49.55
2018-05-27T15:56:40.940Z,49.71
2018-05-27T15:59:13.799Z,50.25
2018-05-27T16:01:43.226Z,50.11
2018-05-27T16:04:11.995Z,51.26
2018-05-27T16:06:41.328Z,51.13
2018-05-27T16:09:11.037Z,51.32
2018-05-27T16:11:39.878Z,51.23
2018-05-27T16:14:18.947Z,51.76
2018-05-27T16:16:48.034Z,51.02
2018-05-27T16:19:23.659Z,51.37
2018-05-27T16:26:09.132Z,51.02
2018-05-27T16:28:36.617Z,51.04
2018-05-27T16:31:04.127Z,51.16
2018-05-27T16:33:31.655Z,51.83
2018-05-27T16:35:59.154Z,50.72
2018-05-27T16:38:28.543Z,51.12
2018-05-27T16:40:57.918Z,51.07
2018-05-27T16:43:25.972Z,50.82
2018-05-27T16:45:53.459Z,50.91
2018-05-27T16:48:20.977Z,50.54
2018-05-27T16:53:35.291Z,51.48
2018-05-27T16:56:02.825Z,51.61
2018-05-27T16:58:46.104Z,51.83
2018-05-27T17:01:14.474Z,51.42
2018-05-27T17:03:46.170Z,51.05
2018-05-27T17:06:13.715Z,50.87
2018-05-27T17:08:41.442Z,50.67
2018-05-27T17:11:12.894Z,50.99
2018-05-27T17:13:41.109Z,51.47
2018-05-27T17:16:10.849Z,52.01
2018-05-27T17:18:38.401Z,52.34
2018-05-27T17:23:39.786Z,52.95
2018-05-27T17:26:07.302Z,53.42
2018-05-27T17:28:39.030Z,53.30
2018-05-27T17:31:06.518Z,53.65
2018-05-27T17:33:34.000Z,53.86
2018-05-27T17:36:01.687Z,54.20
2018-05-27T17:38:29.208Z,54.32
2018-05-27T17:40:56.718Z,54.05
2018-05-27T17:43:24.200Z,54.34
2018-05-27T17:45:51.748Z,54.55
2018-05-27T17:48:19.301Z,54.66
2018-05-27T17:50:46.804Z,55.06
2018-05-27T17:53:14.311Z,54.75
2018-05-27T17:55:41.789Z,54.80
2018-05-27T17:58:09.386Z,55.96
2018-05-27T18:00:36.885Z,55.43
2018-05-27T18:03:04.419Z,55.18
2018-05-27T18:05:31.908Z,55.71
2018-05-27T18:07:59.377Z,55.91
2018-05-27T18:10:26.889Z,55.43
2018-05-27T18:12:54.385Z,55.26
2018-05-27T18:15:21.892Z,55.70
2018-05-27T18:17:49.448Z,56.55
2018-05-27T18:20:16.980Z,55.85
2018-05-27T18:22:44.525Z,55.97
2018-05-27T18:25:12.035Z,56.01
2018-05-27T18:27:39.541Z,56.18
2018-05-27T18:30:07.079Z,56.28
2018-05-27T18:32:34.572Z,56.22
2018-05-27T18:35:02.065Z,55.98
2018-05-27T18:37:29.982Z,57.22
2018-05-27T18:39:57.468Z,56.57
2018-05-27T18:42:24.977Z,56.87
2018-05-27T18:44:52.498Z,57.20
2018-05-27T18:47:20.041Z,57.98
2018-05-27T18:49:47.579Z,58.53
2018-05-27T18:52:15.130Z,57.57
2018-05-27T18:54:42.660Z,57.25
2018-05-27T18:57:10.198Z,57.40
2018-05-27T18:59:37.767Z,57.45
2018-05-27T19:02:05.329Z,57.92
2018-05-27T19:04:32.839Z,58.64
2018-05-27T19:07:00.419Z,58.53
2018-05-27T19:09:27.927Z,59.09
2018-05-27T19:11:55.472Z,59.07
2018-05-27T19:14:23.601Z,58.72
2018-05-27T19:16:51.149Z,59.44
2018-05-27T19:19:18.658Z,59.52
2018-05-27T19:21:46.160Z,58.66
2018-05-27T19:24:13.803Z,59.04
2018-05-27T19:26:41.351Z,58.25
2018-05-27T19:29:09.029Z,58.86
2018-05-27T19:31:36.532Z,59.99
2018-05-27T19:34:04.212Z,59.21
2018-05-27T19:36:31.738Z,59.80
2018-05-27T19:38:59.425Z,60.34
2018-05-27T19:41:27.793Z,59.74
2018-05-27T19:43:55.333Z,60.61
2018-05-27T19:46:22.847Z,60.08
2018-05-27T19:48:50.439Z,60.25
2018-05-27T19:51:18.707Z,61.43
2018-05-27T19:53:48.224Z,61.06
2018-05-27T20:25:47.196Z,62.73
2018-05-27T20:28:14.714Z,62.53
2018-05-27T20:30:42.243Z,63.16
2018-05-27T20:33:09.854Z,62.99
2018-05-27T20:35:37.409Z,62.73
2018-05-27T20:38:04.936Z,62.64
2018-05-27T20:40:32.442Z,62.90
2018-05-27T20:43:00.055Z,63.02
2018-05-27T20:45:27.563Z,62.93
2018-05-27T20:47:55.117Z,62.62
2018-05-27T20:50:22.639Z,62.70
2018-05-27T20:52:50.140Z,62.14
2018-05-27T20:55:18.013Z,62.14
2018-05-27T20:57:45.514Z,61.64
2018-05-27T21:00:13.008Z,62.34
2018-05-27T21:02:40.857Z,60.82
2018-05-27T21:05:08.372Z,58.64
2018-05-27T21:07:35.897Z,56.44
2018-05-27T21:10:03.396Z,55.24
2018-05-27T21:12:30.972Z,54.00
2018-05-27T21:14:58.788Z,52.90
2018-05-27T21:17:26.281Z,52.35
2018-05-27T21:19:53.947Z,51.75
2018-05-27T21:22:21.857Z,51.58
2018-05-27T21:24:49.372Z,51.12
2018-05-27T21:27:16.912Z,51.21
2018-05-27T21:29:44.416Z,51.08
2018-05-27T21:32:12.118Z,51.32
2018-05-27T21:34:39.636Z,51.04
2018-05-27T21:37:07.210Z,51.19
2018-05-27T21:39:34.706Z,51.06
2018-05-27T21:42:02.355Z,50.64
2018-05-27T21:44:29.861Z,50.81
2018-05-27T21:46:57.376Z,51.00
2018-05-27T21:49:24.935Z,51.17
2018-05-27T21:51:52.475Z,50.91
2018-05-27T21:54:20.032Z,51.00
2018-05-27T21:56:47.574Z,50.96
2018-05-27T21:59:15.179Z,50.44
2018-05-27T22:01:42.705Z,50.16
2018-05-27T22:04:10.237Z,50.49
2018-05-27T22:06:38.110Z,50.35
2018-05-27T22:09:05.656Z,50.13
2018-05-27T22:11:33.285Z,50.12
2018-05-27T22:14:00.831Z,49.72
2018-05-27T22:16:28.800Z,49.98
2018-05-27T22:18:56.310Z,50.17
2018-05-27T22:21:23.864Z,50.20
2018-05-27T22:23:51.427Z,50.01
2018-05-27T22:26:18.917Z,50.25
2018-05-27T22:28:46.393Z,50.50
2018-05-27T22:31:13.907Z,50.06
2018-05-27T22:33:41.401Z,50.16
2018-05-27T22:36:08.928Z,50.65
2018-05-27T22:38:36.476Z,50.44
2018-05-27T22:41:04.020Z,50.80
2018-05-27T22:43:31.553Z,50.77
2018-05-27T22:45:59.092Z,51.14
2018-05-27T22:48:26.645Z,50.96
2018-05-27T22:50:54.208Z,51.04
2018-05-27T22:53:21.753Z,51.05
2018-05-27T22:55:49.256Z,51.13
2018-05-27T22:58:16.878Z,51.17
2018-05-27T23:00:44.398Z,51.35
2018-05-27T23:03:11.992Z,51.59
2018-05-27T23:05:39.529Z,51.59
2018-05-27T23:08:07.039Z,51.38
2018-05-27T23:10:34.555Z,51.78
2018-05-27T23:13:02.045Z,51.79
2018-05-27T23:15:29.569Z,51.97
2018-05-27T23:17:57.130Z,52.10
2018-05-27T23:20:24.759Z,52.20
2018-05-27T23:22:52.282Z,52.87
2018-05-27T23:25:19.824Z,52.95
2018-05-27T23:27:47.521Z,53.13
2018-05-27T23:30:15.053Z,53.47
2018-05-27T23:32:42.594Z,53.60
2018-05-27T23:35:10.150Z,53.13
2018-05-27T23:37:37.742Z,53.48
2018-05-27T23:40:05.244Z,53.94
2018-05-27T23:42:32.798Z,53.77
2018-05-27T23:45:00.302Z,54.30
2018-05-27T23:47:27.863Z,53.91
2018-05-27T23:49:55.372Z,54.64
2018-05-27T23:52:23.083Z,54.64
2018-05-27T23:54:50.591Z,54.90
2018-05-27T23:57:18.067Z,54.94
2018-05-27T23:59:45.602Z,55.84
